Time;durP1;ratioP1;P1;durP2;ratioP2;P2;SDS_P1;SDS_P2;PMS_P1;PMS_P2;Temp;Humidity;BMP_temperature;BMP_pressure;BME280_temperature;BME280_humidity;BME280_pressure;Samples;Min_cycle;Max_cycle;Signal;HPM_P1;HPM_P2
2021/12/28 00:00:16;;;;;;;46.85;29.58;;;7.10;85.20;;;;;;5114011;28;20114;-77
2021/12/28 00:02:45;;;;;;;45.60;30.27;;;7.10;85.20;;;;;;5112775;28;20073;-77
2021/12/28 00:05:11;;;;;;;44.78;28.90;;;7.10;85.20;;;;;;5095401;28;20035;-76
2021/12/28 00:07:38;;;;;;;46.78;29.67;;;7.20;85.30;;;;;;5113624;28;20491;-77
2021/12/28 00:10:05;;;;;;;48.60;30.23;;;7.20;85.30;;;;;;5113330;28;20046;-77
2021/12/28 00:12:33;;;;;;;49.53;29.85;;;7.20;85.30;;;;;;5113297;28;20050;-77
2021/12/28 00:15:17;;;;;;;44.83;29.02;;;7.20;85.30;;;;;;5113290;28;20059;-77
2021/12/28 00:20:29;;;;;;;45.58;29.05;;;7.20;85.40;;;;;;5109670;28;20043;-77
2021/12/28 00:22:55;;;;;;;45.60;28.35;;;7.20;85.40;;;;;;5095674;28;20100;-77
2021/12/28 00:25:21;;;;;;;45.90;31.80;;;7.30;85.40;;;;;;5112343;28;20043;-77
2021/12/28 00:27:46;;;;;;;48.05;29.98;;;7.30;85.40;;;;;;5095250;28;20020;-78
2021/12/28 00:30:12;;;;;;;44.30;29.08;;;7.30;85.40;;;;;;5095023;28;20539;-76
2021/12/28 00:32:38;;;;;;;45.28;31.20;;;7.30;85.40;;;;;;5076885;28;20049;-77
2021/12/28 00:35:05;;;;;;;50.28;31.08;;;7.30;85.40;;;;;;5072587;28;20127;-77
2021/12/28 00:37:31;;;;;;;47.95;31.92;;;7.30;85.50;;;;;;5072392;28;20052;-77
2021/12/28 00:39:56;;;;;;;50.40;31.60;;;7.40;85.50;;;;;;5072832;28;20053;-77
2021/12/28 00:42:23;;;;;;;51.72;32.10;;;7.40;85.50;;;;;;5070891;28;20376;-77
2021/12/28 00:44:49;;;;;;;48.53;31.10;;;7.40;85.50;;;;;;5072853;28;20036;-77
2021/12/28 00:47:15;;;;;;;53.25;30.80;;;7.50;85.60;;;;;;5071238;28;20080;-77
2021/12/28 00:49:41;;;;;;;52.45;32.80;;;7.40;85.50;;;;;;5071222;28;20123;-77
2021/12/28 00:52:06;;;;;;;52.28;32.88;;;7.40;85.60;;;;;;5072018;28;20170;-77
2021/12/28 00:54:32;;;;;;;58.28;33.13;;;7.50;85.60;;;;;;5075736;28;20048;-77
2021/12/28 00:56:58;;;;;;;56.78;34.08;;;7.50;85.60;;;;;;5075938;28;20047;-77
2021/12/28 00:59:23;;;;;;;59.63;35.15;;;7.50;85.70;;;;;;5076425;28;20044;-77
2021/12/28 01:01:49;;;;;;;63.92;33.83;;;7.50;85.70;;;;;;5074562;28;20040;-77
2021/12/28 01:04:15;;;;;;;55.30;31.65;;;7.60;85.70;;;;;;5076416;28;20109;-77
2021/12/28 01:06:41;;;;;;;58.58;32.83;;;7.60;85.70;;;;;;5074434;28;20040;-77
2021/12/28 01:09:07;;;;;;;56.75;35.00;;;7.60;85.70;;;;;;5075349;28;20042;-77
2021/12/28 01:11:32;;;;;;;60.75;31.95;;;7.60;85.80;;;;;;5074119;28;20044;-75
2021/12/28 01:13:59;;;;;;;62.72;33.05;;;7.70;85.80;;;;;;5076118;28;20395;-76
2021/12/28 01:16:24;;;;;;;59.65;32.42;;;7.60;85.80;;;;;;5074179;28;20036;-75
2021/12/28 01:18:50;;;;;;;60.00;33.42;;;7.70;85.80;;;;;;5076269;28;20036;-75
2021/12/28 01:21:16;;;;;;;63.35;31.83;;;7.70;85.80;;;;;;5075828;28;20072;-75
2021/12/28 01:23:41;;;;;;;64.88;33.35;;;7.70;85.80;;;;;;5074314;28;20083;-75
2021/12/28 01:26:07;;;;;;;70.88;34.05;;;7.70;85.80;;;;;;5066259;28;20135;-75
2021/12/28 01:28:33;;;;;;;70.80;33.88;;;7.70;85.80;;;;;;5073900;28;20032;-75
2021/12/28 01:30:59;;;;;;;66.57;32.60;;;7.70;85.80;;;;;;5076824;28;20146;-75
2021/12/28 01:33:24;;;;;;;65.22;33.22;;;7.70;85.80;;;;;;5116217;28;20040;-76
2021/12/28 01:35:50;;;;;;;65.70;33.28;;;7.80;85.90;;;;;;5116636;28;20032;-75
2021/12/28 01:38:17;;;;;;;67.22;33.13;;;7.80;85.90;;;;;;5115787;28;20055;-75
2021/12/28 01:40:43;;;;;;;59.50;32.75;;;7.80;85.90;;;;;;5116526;28;20458;-76
2021/12/28 01:43:15;;;;;;;63.53;34.22;;;7.80;85.90;;;;;;5097555;28;20092;-76
2021/12/28 01:46:07;;;;;;;63.80;34.20;;;7.80;86.00;;;;;;5115843;28;20043;-76
2021/12/28 01:48:39;;;;;;;67.45;32.63;;;7.80;86.00;;;;;;5111118;28;20054;-76
2021/12/28 01:51:10;;;;;;;66.47;33.40;;;7.80;85.90;;;;;;5097770;28;20378;-75
2021/12/28 01:53:37;;;;;;;70.00;33.67;;;7.80;85.90;;;;;;5115811;28;20044;-76
2021/12/28 01:56:09;;;;;;;62.53;33.03;;;7.80;85.90;;;;;;5116150;28;20050;-76
2021/12/28 01:58:36;;;;;;;65.30;32.83;;;7.80;85.90;;;;;;5097327;28;20040;-76
2021/12/28 02:01:03;;;;;;;71.82;33.80;;;7.80;85.90;;;;;;5116354;28;20103;-76
2021/12/28 02:03:31;;;;;;;66.80;31.98;;;7.80;85.90;;;;;;5096221;28;20081;-75
2021/12/28 02:05:57;;;;;;;65.97;33.00;;;7.80;85.90;;;;;;5089630;28;20055;-76
2021/12/28 02:08:23;;;;;;;61.10;31.83;;;7.80;85.90;;;;;;5115779;28;20039;-76
2021/12/28 02:10:51;;;;;;;58.17;31.50;;;7.90;85.90;;;;;;5115637;28;20043;-75
2021/12/28 02:13:17;;;;;;;74.10;34.28;;;7.90;86.00;;;;;;5114943;28;20036;-76
2021/12/28 02:15:44;;;;;;;73.88;32.83;;;7.80;85.90;;;;;;5114895;28;20379;-76
2021/12/28 02:18:12;;;;;;;73.65;34.20;;;7.90;85.90;;;;;;5096679;28;20474;-76
2021/12/28 02:20:38;;;;;;;74.45;34.15;;;7.90;85.90;;;;;;5097449;28;20159;-76
2021/12/28 02:23:05;;;;;;;56.53;32.38;;;7.90;85.90;;;;;;5115115;28;20398;-76
2021/12/28 02:25:31;;;;;;;63.55;31.02;;;7.90;85.90;;;;;;5097515;28;20153;-76
2021/12/28 02:27:59;;;;;;;75.60;33.45;;;7.90;85.90;;;;;;5114802;28;20169;-76
2021/12/28 02:30:26;;;;;;;76.22;32.63;;;7.80;85.80;;;;;;5115076;28;20076;-76
2021/12/28 02:32:52;;;;;;;62.83;31.98;;;7.90;85.90;;;;;;5114373;28;20056;-76
2021/12/28 02:35:22;;;;;;;68.88;32.88;;;7.90;85.90;;;;;;5097340;28;20040;-75
2021/12/28 02:37:48;;;;;;;64.78;32.38;;;7.90;85.80;;;;;;5096539;28;20055;-76
2021/12/28 02:40:18;;;;;;;66.60;33.83;;;7.90;85.80;;;;;;5114977;28;20364;-75
2021/12/28 02:42:44;;;;;;;59.42;31.13;;;7.90;85.90;;;;;;5111399;28;20039;-76
2021/12/28 02:45:21;;;;;;;67.15;32.63;;;7.90;85.90;;;;;;5096849;28;20473;-76
2021/12/28 02:47:47;;;;;;;60.92;29.67;;;7.90;85.90;;;;;;5114529;28;20057;-76
2021/12/28 02:50:17;;;;;;;65.68;31.80;;;7.90;85.90;;;;;;5096825;28;20043;-76
2021/12/28 02:52:43;;;;;;;66.68;32.03;;;7.90;85.90;;;;;;5114479;28;20493;-75
2021/12/28 02:55:12;;;;;;;61.22;30.30;;;7.90;85.90;;;;;;5114859;28;20035;-76
2021/12/28 02:57:45;;;;;;;71.78;30.00;;;7.90;85.90;;;;;;5115030;28;20039;-76
2021/12/28 03:00:11;;;;;;;65.70;31.35;;;7.90;85.90;;;;;;5114081;28;20039;-76
2021/12/28 03:02:36;;;;;;;61.80;30.33;;;7.90;85.90;;;;;;5113383;28;20047;-76
2021/12/28 03:05:02;;;;;;;57.90;28.40;;;7.90;85.90;;;;;;5095842;28;20031;-76
2021/12/28 03:07:31;;;;;;;66.47;29.27;;;7.90;85.80;;;;;;5114926;28;20486;-76
2021/12/28 03:09:57;;;;;;;59.13;29.20;;;7.90;85.90;;;;;;5096436;28;20071;-76
2021/12/28 03:12:23;;;;;;;59.97;28.65;;;7.90;85.90;;;;;;5113950;28;20055;-76
2021/12/28 03:14:48;;;;;;;53.80;26.52;;;7.90;85.90;;;;;;5096363;28;20039;-76
2021/12/28 03:17:14;;;;;;;56.90;28.42;;;8.00;85.90;;;;;;5113934;28;20562;-76
2021/12/28 03:19:40;;;;;;;57.25;28.25;;;8.00;85.90;;;;;;5114592;28;20057;-75
2021/12/28 03:22:05;;;;;;;53.38;27.48;;;8.00;85.90;;;;;;5114300;28;20096;-75
2021/12/28 03:24:31;;;;;;;53.80;26.52;;;8.00;85.90;;;;;;5095523;28;20032;-75
2021/12/28 03:26:58;;;;;;;51.38;26.60;;;8.00;85.90;;;;;;5114639;28;20047;-76
2021/12/28 03:29:23;;;;;;;54.38;27.15;;;8.10;85.90;;;;;;5113891;28;20039;-76
2021/12/28 03:31:49;;;;;;;50.75;27.45;;;8.10;85.90;;;;;;5113921;28;20402;-76
2021/12/28 03:34:15;;;;;;;59.97;28.73;;;8.10;85.90;;;;;;5112904;28;20036;-75
2021/12/28 03:36:41;;;;;;;49.60;26.52;;;8.10;85.90;;;;;;5113903;28;20040;-76
2021/12/28 03:39:07;;;;;;;51.95;26.65;;;8.10;85.90;;;;;;5114184;28;20133;-76
2021/12/28 03:41:34;;;;;;;53.38;26.27;;;8.10;85.80;;;;;;5114071;28;20084;-76
2021/12/28 03:44:01;;;;;;;56.15;27.20;;;8.10;85.80;;;;;;5098116;28;20059;-76
2021/12/28 03:46:28;;;;;;;40.08;23.98;;;8.10;85.80;;;;;;5113864;28;20410;-75
2021/12/28 03:48:55;;;;;;;51.05;25.83;;;8.10;85.80;;;;;;5095446;28;20035;-75
2021/12/28 03:51:21;;;;;;;54.88;24.85;;;8.10;85.70;;;;;;5095393;28;20498;-75
2021/12/28 03:53:47;;;;;;;50.13;24.40;;;8.00;85.70;;;;;;5113628;28;20046;-75
2021/12/28 03:56:14;;;;;;;44.65;25.27;;;8.00;85.70;;;;;;5113385;28;20119;-75
2021/12/28 03:58:41;;;;;;;45.15;23.80;;;8.00;85.70;;;;;;5095752;28;20445;-76
2021/12/28 04:01:10;;;;;;;44.47;23.05;;;8.00;85.70;;;;;;5094892;28;20051;-76
2021/12/28 04:03:36;;;;;;;47.38;22.38;;;8.10;85.70;;;;;;5113044;28;20049;-75
2021/12/28 04:06:07;;;;;;;57.97;25.15;;;8.00;85.70;;;;;;5094998;28;20058;-76
2021/12/28 04:08:34;;;;;;;43.05;23.00;;;8.00;85.60;;;;;;5113222;28;20046;-76
2021/12/28 04:11:15;;;;;;;45.78;23.23;;;8.00;85.60;;;;;;5113721;28;20100;-75
2021/12/28 04:13:43;;;;;;;41.58;22.85;;;8.00;85.70;;;;;;5112744;28;20047;-75
2021/12/28 04:16:09;;;;;;;40.45;22.50;;;8.00;85.70;;;;;;5113006;28;20065;-75
2021/12/28 04:18:34;;;;;;;41.97;21.80;;;8.00;85.60;;;;;;5113206;28;20471;-75
2021/12/28 04:21:00;;;;;;;41.33;22.10;;;8.00;85.60;;;;;;5113221;28;20075;-76
2021/12/28 04:23:26;;;;;;;38.10;22.40;;;8.10;85.60;;;;;;5112733;28;20035;-76
2021/12/28 04:25:52;;;;;;;38.38;21.50;;;8.00;85.60;;;;;;5094614;28;20060;-77
2021/12/28 04:28:17;;;;;;;40.60;21.80;;;8.00;85.50;;;;;;5113429;28;20457;-76
2021/12/28 04:30:43;;;;;;;52.92;24.90;;;8.10;85.60;;;;;;5077713;28;20087;-76
2021/12/28 04:33:09;;;;;;;40.30;22.08;;;8.00;85.50;;;;;;5112969;28;20051;-76
2021/12/28 04:35:34;;;;;;;40.17;20.88;;;8.00;85.50;;;;;;5112744;28;20044;-75
2021/12/28 04:38:00;;;;;;;42.78;22.88;;;8.00;85.40;;;;;;5094929;28;20035;-76
2021/12/28 04:40:26;;;;;;;39.60;21.20;;;8.00;85.40;;;;;;5095096;28;20044;-76
2021/12/28 04:42:52;;;;;;;36.28;21.75;;;8.00;85.30;;;;;;5113359;28;20513;-76
2021/12/28 04:45:18;;;;;;;39.70;22.35;;;8.00;85.30;;;;;;5112962;28;20089;-76
2021/12/28 04:47:44;;;;;;;39.53;21.83;;;8.00;85.30;;;;;;5112743;28;20049;-76
2021/12/28 04:50:12;;;;;;;38.72;21.08;;;8.00;85.20;;;;;;5095006;28;20036;-76
2021/12/28 04:52:39;;;;;;;38.13;21.55;;;7.90;85.20;;;;;;5112398;28;20036;-75
2021/12/28 04:55:17;;;;;;;36.85;22.50;;;8.00;85.10;;;;;;5112879;28;20394;-76
2021/12/28 04:57:44;;;;;;;33.85;20.17;;;7.90;85.10;;;;;;5112975;28;20123;-75
2021/12/28 05:00:15;;;;;;;40.95;21.75;;;7.90;85.00;;;;;;5094747;28;20081;-76
2021/12/28 05:02:41;;;;;;;35.17;19.77;;;7.90;85.40;;;;;;5094526;28;20398;-76
2021/12/28 05:05:08;;;;;;;34.53;20.60;;;7.90;85.00;;;;;;5094038;28;20043;-76
2021/12/28 05:07:34;;;;;;;36.90;21.70;;;7.90;84.90;;;;;;5112770;28;20039;-76
2021/12/28 05:09:59;;;;;;;36.85;20.80;;;7.90;84.90;;;;;;5112728;28;20713;-76
2021/12/28 05:12:26;;;;;;;36.15;20.30;;;7.90;84.90;;;;;;5113100;28;20047;-76
2021/12/28 05:14:52;;;;;;;34.30;19.55;;;7.90;84.90;;;;;;5112141;28;20069;-76
2021/12/28 05:17:17;;;;;;;37.45;20.20;;;7.90;84.90;;;;;;5112676;28;20035;-76
2021/12/28 05:19:43;;;;;;;34.47;18.67;;;7.90;84.80;;;;;;5094523;28;20062;-76
2021/12/28 05:22:09;;;;;;;42.20;21.25;;;7.80;84.70;;;;;;5104525;28;20043;-75
2021/12/28 05:24:36;;;;;;;31.98;19.98;;;7.80;84.70;;;;;;5112385;28;20104;-76
2021/12/28 05:27:02;;;;;;;31.45;17.80;;;7.80;84.70;;;;;;5112211;28;20054;-76
2021/12/28 05:29:27;;;;;;;30.13;18.90;;;7.80;84.60;;;;;;5112745;28;20035;-76
2021/12/28 05:31:53;;;;;;;30.00;18.10;;;7.70;84.60;;;;;;5111198;28;20047;-76
2021/12/28 05:34:19;;;;;;;38.03;18.15;;;7.80;84.60;;;;;;5094144;28;20386;-76
2021/12/28 05:36:46;;;;;;;29.02;17.20;;;7.80;84.60;;;;;;5112751;28;20036;-76
2021/12/28 05:39:12;;;;;;;33.17;17.13;;;7.80;84.60;;;;;;5113462;28;20089;-76
2021/12/28 05:41:38;;;;;;;30.83;17.08;;;7.80;84.60;;;;;;5116094;28;20046;-76
2021/12/28 05:44:03;;;;;;;28.83;16.55;;;7.80;84.50;;;;;;5116281;28;20039;-76
2021/12/28 05:46:29;;;;;;;28.45;16.00;;;7.70;84.50;;;;;;5115809;28;20047;-76
2021/12/28 05:48:55;;;;;;;30.55;16.10;;;7.80;84.50;;;;;;5115752;28;20073;-76
2021/12/28 05:51:20;;;;;;;31.75;16.05;;;7.80;84.50;;;;;;5116210;28;20035;-76
2021/12/28 05:53:46;;;;;;;30.25;15.57;;;7.70;84.40;;;;;;5096639;28;20051;-76
2021/12/28 05:56:12;;;;;;;28.90;15.10;;;7.70;84.40;;;;;;5115554;28;20089;-75
2021/12/28 05:58:37;;;;;;;29.50;14.82;;;7.70;84.40;;;;;;5116358;28;20042;-76
2021/12/28 06:01:03;;;;;;;27.10;13.63;;;7.70;84.40;;;;;;5115497;28;20036;-76
2021/12/28 06:03:30;;;;;;;26.63;13.65;;;7.70;84.30;;;;;;5115892;28;20081;-76
2021/12/28 06:05:56;;;;;;;20.55;13.75;;;7.70;84.30;;;;;;5116121;28;20054;-76
2021/12/28 06:08:21;;;;;;;25.08;14.25;;;7.70;84.30;;;;;;5096818;28;20130;-76
2021/12/28 06:10:47;;;;;;;28.52;14.15;;;7.70;84.30;;;;;;5115704;28;20058;-76
2021/12/28 06:13:13;;;;;;;26.08;13.77;;;7.70;84.30;;;;;;5097253;28;20085;-75
2021/12/28 06:15:38;;;;;;;26.48;13.48;;;7.70;84.30;;;;;;5115929;28;20483;-76
2021/12/28 06:18:04;;;;;;;29.42;12.90;;;7.80;84.40;;;;;;5097341;28;20047;-76
2021/12/28 06:20:29;;;;;;;26.70;12.43;;;7.70;84.30;;;;;;5114847;28;20024;-76
2021/12/28 06:22:55;;;;;;;22.50;12.23;;;7.70;84.20;;;;;;5097088;28;20044;-76
2021/12/28 06:25:21;;;;;;;23.80;11.27;;;7.70;84.20;;;;;;5096872;28;20081;-76
2021/12/28 06:27:46;;;;;;;24.83;12.40;;;7.70;84.20;;;;;;5097221;28;20047;-76
2021/12/28 06:30:12;;;;;;;27.95;11.68;;;7.80;84.20;;;;;;5115249;28;20046;-76
2021/12/28 06:32:38;;;;;;;25.98;10.77;;;7.80;84.20;;;;;;5095651;28;20090;-75
2021/12/28 06:35:05;;;;;;;24.08;10.20;;;7.70;84.50;;;;;;5115021;28;20143;-76
2021/12/28 06:37:31;;;;;;;20.33;9.98;;;7.70;84.10;;;;;;5097147;28;20047;-76
2021/12/28 06:39:56;;;;;;;21.27;10.25;;;7.80;84.20;;;;;;5079663;28;20043;-76
2021/12/28 06:42:22;;;;;;;26.17;10.00;;;7.80;84.10;;;;;;5097029;28;20047;-76
2021/12/28 06:44:48;;;;;;;23.33;10.20;;;7.80;84.10;;;;;;5114572;28;20047;-75
2021/12/28 06:47:14;;;;;;;24.33;9.98;;;7.80;84.00;;;;;;5115108;28;20048;-76
2021/12/28 06:49:40;;;;;;;18.23;10.38;;;7.80;83.90;;;;;;5096468;28;20043;-75
2021/12/28 06:52:06;;;;;;;23.65;10.40;;;7.80;84.00;;;;;;5096162;28;20051;-76
2021/12/28 06:54:36;;;;;;;23.90;9.63;;;7.70;84.20;;;;;;5096377;28;20054;-75
2021/12/28 06:57:08;;;;;;;25.38;9.27;;;7.70;83.80;;;;;;5112319;28;20047;-76
2021/12/28 06:59:40;;;;;;;22.00;9.82;;;7.80;84.30;;;;;;5114593;28;20031;-76
2021/12/28 07:02:06;;;;;;;22.20;10.00;;;7.80;83.90;;;;;;5088849;28;20490;-76
2021/12/28 07:04:31;;;;;;;19.25;9.15;;;7.80;83.80;;;;;;5114660;28;20038;-76
2021/12/28 07:06:57;;;;;;;20.25;9.13;;;7.70;83.60;;;;;;5114442;28;20067;-77
2021/12/28 07:09:23;;;;;;;23.25;10.15;;;7.70;83.60;;;;;;5114751;28;20396;-77
2021/12/28 07:11:49;;;;;;;19.48;9.65;;;7.70;83.60;;;;;;5096027;28;20074;-77
2021/12/28 07:14:14;;;;;;;22.17;8.93;;;7.70;83.60;;;;;;5114436;28;20119;-77
2021/12/28 07:16:40;;;;;;;17.08;8.75;;;7.70;83.60;;;;;;5114088;28;20043;-77
2021/12/28 07:19:10;;;;;;;19.08;8.82;;;7.70;83.60;;;;;;5114655;28;20127;-77
2021/12/28 07:21:37;;;;;;;19.73;9.55;;;7.70;84.00;;;;;;5114480;28;20052;-77
2021/12/28 07:24:05;;;;;;;22.30;9.10;;;7.70;83.60;;;;;;5113218;28;20047;-77
2021/12/28 07:26:30;;;;;;;24.55;9.02;;;7.70;83.60;;;;;;5114775;28;20079;-76
2021/12/28 07:28:56;;;;;;;21.42;9.50;;;7.70;83.60;;;;;;5113585;28;20054;-76
2021/12/28 07:31:22;;;;;;;20.98;9.27;;;7.70;83.60;;;;;;5091332;28;20048;-76
2021/12/28 07:33:47;;;;;;;26.38;8.90;;;7.70;83.60;;;;;;5073599;28;20043;-76
2021/12/28 07:36:13;;;;;;;25.33;9.43;;;7.70;83.60;;;;;;5087526;28;20036;-78
2021/12/28 07:38:39;;;;;;;27.00;9.05;;;7.70;83.60;;;;;;5081130;28;20052;-78
2021/12/28 07:41:04;;;;;;;19.23;9.27;;;7.80;83.70;;;;;;5084598;28;20550;-77
2021/12/28 07:43:30;;;;;;;19.25;8.30;;;7.80;83.70;;;;;;5077140;28;20479;-78
2021/12/28 07:45:56;;;;;;;23.77;9.45;;;7.80;83.60;;;;;;5074777;28;20060;-77
2021/12/28 07:48:21;;;;;;;25.73;8.80;;;7.80;83.60;;;;;;5075167;28;20033;-75
2021/12/28 07:50:47;;;;;;;19.58;8.77;;;7.80;83.60;;;;;;5080272;28;20479;-78
2021/12/28 07:53:12;;;;;;;20.25;9.43;;;7.80;83.60;;;;;;5077427;28;20044;-78
2021/12/28 07:55:38;;;;;;;19.30;9.38;;;7.80;83.60;;;;;;5077912;28;20044;-75
2021/12/28 07:58:04;;;;;;;20.88;9.15;;;7.80;83.60;;;;;;5091186;28;20041;-75
2021/12/28 08:00:29;;;;;;;20.83;9.55;;;7.80;83.60;;;;;;5088350;28;20507;-76
2021/12/28 08:02:55;;;;;;;21.52;8.25;;;7.80;83.60;;;;;;5074014;28;20125;-76
2021/12/28 08:05:22;;;;;;;22.58;8.65;;;7.80;83.70;;;;;;5071623;28;20040;-76
2021/12/28 08:07:48;;;;;;;30.63;9.90;;;7.80;83.70;;;;;;5081116;28;20036;-76
2021/12/28 08:10:15;;;;;;;20.10;8.98;;;7.80;83.70;;;;;;5073647;28;20124;-76
2021/12/28 08:12:41;;;;;;;21.80;8.55;;;7.80;83.70;;;;;;5074922;28;20131;-77
2021/12/28 08:15:08;;;;;;;22.20;8.27;;;7.80;83.70;;;;;;5073064;28;20040;-76
2021/12/28 08:17:34;;;;;;;22.60;8.43;;;7.80;83.80;;;;;;5081051;28;20045;-76
2021/12/28 08:20:00;;;;;;;24.10;8.73;;;7.80;83.80;;;;;;5073266;28;20390;-75
2021/12/28 08:22:25;;;;;;;25.35;8.90;;;7.80;83.70;;;;;;5076361;28;20060;-76
2021/12/28 08:24:51;;;;;;;26.38;8.80;;;7.80;83.80;;;;;;5071646;28;20040;-76
2021/12/28 08:27:17;;;;;;;25.10;8.38;;;7.80;83.80;;;;;;5080879;28;20036;-76
2021/12/28 08:29:42;;;;;;;19.05;9.13;;;7.80;83.80;;;;;;5089033;28;20429;-76
2021/12/28 08:32:08;;;;;;;24.40;8.07;;;7.80;83.80;;;;;;5092986;28;20081;-76
2021/12/28 08:34:34;;;;;;;17.70;7.85;;;7.80;83.80;;;;;;5094324;28;20055;-76
2021/12/28 08:36:59;;;;;;;24.48;7.57;;;7.80;83.80;;;;;;5113275;28;20074;-77
2021/12/28 08:39:25;;;;;;;21.73;8.48;;;7.80;83.80;;;;;;5112746;28;20195;-77
2021/12/28 08:41:51;;;;;;;19.88;8.10;;;7.80;83.90;;;;;;5112895;28;20141;-76
2021/12/28 08:44:17;;;;;;;20.85;7.97;;;7.70;83.80;;;;;;5095263;28;20043;-77
2021/12/28 08:46:44;;;;;;;19.90;9.30;;;7.70;83.90;;;;;;5113297;28;20540;-77
2021/12/28 08:49:10;;;;;;;20.05;8.10;;;7.70;84.00;;;;;;5112628;28;20048;-77
2021/12/28 08:51:36;;;;;;;27.38;9.45;;;7.80;84.10;;;;;;5094738;28;20044;-77
2021/12/28 08:54:02;;;;;;;23.48;8.90;;;7.80;84.10;;;;;;5094661;28;20047;-77
2021/12/28 08:56:28;;;;;;;27.40;9.05;;;7.80;84.10;;;;;;5094783;28;20469;-77
2021/12/28 08:58:53;;;;;;;26.05;9.88;;;7.80;84.20;;;;;;5094484;28;20493;-77
2021/12/28 09:01:19;;;;;;;27.35;9.07;;;7.90;84.30;;;;;;5094694;28;20047;-76
2021/12/28 09:03:44;;;;;;;27.17;9.60;;;7.90;84.30;;;;;;5112725;28;20044;-76
2021/12/28 09:06:10;;;;;;;28.23;9.40;;;7.90;84.40;;;;;;5112849;28;20040;-76
2021/12/28 09:08:36;;;;;;;23.13;9.35;;;7.90;84.40;;;;;;5111737;28;20051;-77
2021/12/28 09:11:01;;;;;;;30.88;9.85;;;7.90;84.50;;;;;;5114315;28;20044;-76
2021/12/28 09:13:27;;;;;;;30.77;10.13;;;8.00;84.60;;;;;;5104815;28;20043;-76
2021/12/28 09:15:53;;;;;;;25.50;10.65;;;8.00;84.60;;;;;;5116618;28;20144;-76
2021/12/28 09:18:19;;;;;;;31.15;11.57;;;8.10;85.10;;;;;;5116796;28;20546;-77
2021/12/28 09:20:45;;;;;;;27.13;10.88;;;8.10;84.70;;;;;;5097232;28;20126;-77
2021/12/28 09:23:12;;;;;;;28.05;11.15;;;8.10;84.70;;;;;;5098233;28;20062;-76
2021/12/28 09:25:39;;;;;;;27.05;11.32;;;8.20;84.80;;;;;;5097244;28;20043;-76
2021/12/28 09:28:06;;;;;;;31.20;12.20;;;8.20;84.90;;;;;;5115814;28;20100;-77
2021/12/28 09:30:32;;;;;;;26.63;10.95;;;8.20;84.80;;;;;;5115837;28;20044;-76
2021/12/28 09:32:58;;;;;;;27.65;10.57;;;8.20;84.80;;;;;;5115580;28;20146;-77
2021/12/28 09:35:24;;;;;;;24.30;11.25;;;8.30;84.80;;;;;;5116147;28;20141;-77
2021/12/28 09:37:49;;;;;;;28.45;12.10;;;8.30;84.80;;;;;;5115845;28;20045;-79
2021/12/28 09:40:16;;;;;;;28.55;12.20;;;8.30;84.80;;;;;;5115542;28;20264;-78
2021/12/28 09:42:42;;;;;;;26.15;11.68;;;8.40;84.90;;;;;;5115785;28;20096;-78
2021/12/28 09:45:10;;;;;;;27.60;10.80;;;8.40;84.90;;;;;;5097339;28;20482;-79
2021/12/28 09:47:35;;;;;;;26.42;12.30;;;8.30;84.80;;;;;;5116001;28;20139;-76
2021/12/28 09:50:03;;;;;;;28.60;11.35;;;8.40;84.80;;;;;;5115588;28;20126;-76
2021/12/28 09:52:29;;;;;;;25.73;11.43;;;8.40;84.90;;;;;;5115351;28;20053;-77
2021/12/28 09:54:54;;;;;;;22.55;11.73;;;8.40;84.80;;;;;;5115726;28;20039;-76
2021/12/28 09:57:20;;;;;;;23.98;13.07;;;8.40;84.90;;;;;;5114915;28;20036;-77
2021/12/28 09:59:47;;;;;;;23.27;13.20;;;8.40;84.90;;;;;;5115685;28;20039;-77
2021/12/28 10:02:14;;;;;;;28.75;12.23;;;8.40;85.00;;;;;;5097050;28;20483;-78
2021/12/28 10:05:04;;;;;;;22.08;11.75;;;8.40;85.00;;;;;;5114722;28;20044;-77
2021/12/28 10:07:32;;;;;;;26.90;11.43;;;8.40;85.20;;;;;;5111709;28;20055;-77
2021/12/28 10:09:58;;;;;;;28.27;13.30;;;8.40;85.20;;;;;;5097472;28;20128;-77
2021/12/28 10:12:34;;;;;;;25.63;13.27;;;8.40;85.10;;;;;;5115228;28;20048;-77
2021/12/28 10:15:04;;;;;;;21.52;11.77;;;8.50;85.30;;;;;;5110588;28;20047;-77
2021/12/28 10:17:32;;;;;;;20.25;12.25;;;8.50;85.20;;;;;;5080186;28;20059;-77
2021/12/28 10:19:59;;;;;;;21.75;12.50;;;8.60;85.30;;;;;;5115037;28;20118;-77
2021/12/28 10:22:38;;;;;;;26.15;13.05;;;8.60;85.30;;;;;;5115376;28;20059;-77
2021/12/28 10:25:12;;;;;;;24.30;13.15;;;8.60;85.40;;;;;;5092831;28;20482;-77
2021/12/28 10:27:41;;;;;;;21.75;13.15;;;8.60;85.40;;;;;;5115270;28;20049;-76
2021/12/28 10:30:32;;;;;;;25.02;11.95;;;8.60;85.40;;;;;;5107234;28;20039;-77
2021/12/28 10:33:09;;;;;;;24.42;13.02;;;8.70;85.60;;;;;;5094871;28;20059;-76
2021/12/28 10:35:47;;;;;;;20.00;12.05;;;8.70;85.70;;;;;;5095250;28;20526;-77
2021/12/28 10:38:25;;;;;;;22.35;14.43;;;8.70;85.70;;;;;;5097143;28;20505;-77
2021/12/28 10:40:58;;;;;;;20.25;13.95;;;8.80;85.80;;;;;;5104422;28;20036;-77
2021/12/28 10:43:30;;;;;;;20.75;12.77;;;8.80;85.70;;;;;;5115073;28;20043;-77
2021/12/28 10:46:00;;;;;;;17.83;11.88;;;8.80;85.70;;;;;;5113453;28;20040;-77
2021/12/28 10:48:51;;;;;;;18.85;11.95;;;8.80;85.60;;;;;;5096252;28;20062;-76
2021/12/28 10:51:22;;;;;;;22.33;11.65;;;8.90;85.80;;;;;;5070458;28;20068;-82
2021/12/28 10:56:27;;;;;;;19.58;11.38;;;8.90;85.70;;;;;;5043507;28;20056;-82
2021/12/28 10:58:54;;;;;;;15.10;10.35;;;8.90;85.70;;;;;;5064224;28;20045;-82
2021/12/28 11:01:26;;;;;;;19.20;10.75;;;8.90;85.80;;;;;;5057101;28;20033;-83
2021/12/28 11:03:55;;;;;;;18.48;11.95;;;8.90;85.80;;;;;;5069263;28;20044;-82
2021/12/28 11:06:27;;;;;;;19.00;11.35;;;9.00;85.80;;;;;;5053834;28;20060;-82
2021/12/28 11:08:59;;;;;;;16.63;10.77;;;9.00;85.90;;;;;;5049663;28;20061;-82
2021/12/28 11:11:25;;;;;;;14.57;9.52;;;9.00;85.90;;;;;;5053649;28;20045;-82
2021/12/28 11:14:00;;;;;;;13.85;9.88;;;9.00;85.90;;;;;;5045887;28;20435;-82
2021/12/28 11:16:29;;;;;;;13.57;9.02;;;9.00;86.00;;;;;;5046228;28;20067;-82
2021/12/28 11:19:00;;;;;;;16.63;9.73;;;9.00;85.90;;;;;;5049041;28;20048;-82
2021/12/28 11:21:29;;;;;;;16.60;9.55;;;9.00;85.90;;;;;;5050935;28;20056;-82
2021/12/28 11:24:00;;;;;;;11.90;9.23;;;9.00;86.40;;;;;;5066479;28;20045;-82
2021/12/28 11:26:30;;;;;;;12.77;9.10;;;9.10;86.00;;;;;;5067762;28;20123;-81
2021/12/28 11:29:00;;;;;;;18.90;8.57;;;9.10;86.10;;;;;;5103133;27;20052;-75
2021/12/28 11:31:34;;;;;;;13.20;8.25;;;9.10;86.20;;;;;;5116140;27;20059;-76
2021/12/28 11:34:06;;;;;;;11.80;8.00;;;9.10;86.10;;;;;;5112103;28;20506;-76
2021/12/28 11:36:39;;;;;;;12.98;7.70;;;9.20;86.20;;;;;;5115580;28;20044;-76
2021/12/28 11:39:10;;;;;;;11.15;7.32;;;9.20;86.20;;;;;;5101646;28;20067;-76
2021/12/28 11:41:37;;;;;;;11.75;7.20;;;9.20;86.20;;;;;;5122686;28;20047;-76
2021/12/28 11:44:04;;;;;;;9.73;6.63;;;9.20;86.20;;;;;;5122966;28;20097;-76
2021/12/28 11:46:33;;;;;;;12.10;6.68;;;9.20;86.00;;;;;;5123917;28;20406;-75
2021/12/28 11:49:14;;;;;;;10.57;6.28;;;9.20;86.10;;;;;;5191979;22;20084;-76
2021/12/28 11:52:13;;;;;;;9.75;6.22;;;9.30;86.30;;;;;;5214060;22;20048;-77
2021/12/28 11:55:25;;;;;;;9.20;5.35;;;9.30;86.30;;;;;;5156292;22;20052;-76
2021/12/28 11:58:22;;;;;;;11.35;5.95;;;9.30;86.40;;;;;;5064716;22;20052;-77
2021/12/28 12:08:29;;;;;;;7.88;5.45;;;9.30;86.20;;;;;;4200764;23;20054;-82
2021/12/28 12:15:11;;;;;;;7.88;5.57;;;9.40;86.20;;;;;;5100940;23;20034;-75
2021/12/28 12:18:09;;;;;;;8.20;5.57;;;9.50;86.30;;;;;;4999862;23;20050;-75
2021/12/28 12:21:03;;;;;;;9.55;5.22;;;9.30;86.10;;;;;;5076143;23;20062;-76
2021/12/28 12:33:00;;;;;;;8.77;5.20;;;9.50;86.20;;;;;;5113834;23;20334;-76
2021/12/28 12:39:21;;;;;;;8.90;6.63;;;9.30;86.00;;;;;;5534583;23;20418;-76
2021/12/28 13:13:40;;;;;;;8.57;5.30;;;9.60;86.20;;;;;;5992279;23;20023;31
2021/12/28 13:16:46;;;;;;;7.20;5.60;;;9.60;86.20;;;;;;4949461;29;20165;-76
2021/12/28 13:19:20;;;;;;;13.77;6.78;;;9.70;86.20;;;;;;4909789;29;20063;-74
2021/12/28 13:22:01;;;;;;;7.63;5.80;;;9.70;86.10;;;;;;4941874;29;20074;-76
2021/12/28 13:24:30;;;;;;;12.02;6.03;;;9.70;86.20;;;;;;4946082;29;20043;-75
2021/12/28 13:27:01;;;;;;;19.63;7.05;;;9.70;86.10;;;;;;4942759;29;20056;-73
2021/12/28 13:29:34;;;;;;;14.40;6.88;;;9.80;86.10;;;;;;4930466;29;20060;-68
2021/12/28 13:32:20;;;;;;;20.20;7.10;;;9.70;86.00;;;;;;4948954;29;20059;-65
2021/12/28 13:35:17;;;;;;;7.25;6.07;;;9.70;86.10;;;;;;4931629;29;20056;-66
2021/12/28 13:37:53;;;;;;;8.70;6.00;;;9.70;86.10;;;;;;4916408;29;20099;-66
2021/12/28 13:40:43;;;;;;;9.48;6.18;;;9.70;86.40;;;;;;4945185;29;20046;-66
2021/12/28 13:43:23;;;;;;;10.35;5.20;;;9.70;85.90;;;;;;4909516;29;20068;-66
2021/12/28 13:45:50;;;;;;;9.13;5.05;;;9.70;86.00;;;;;;4901399;29;20068;-65
2021/12/28 13:48:23;;;;;;;7.70;5.20;;;9.70;85.90;;;;;;4935820;29;20086;-66